Time;durP1;ratioP1;P1;durP2;ratioP2;P2;SDS_P1;SDS_P2;PMS_P1;PMS_P2;Temp;Humidity;BMP_temperature;BMP_pressure;BME280_temperature;BME280_humidity;BME280_pressure;Samples;Min_cycle;Max_cycle;Signal;HPM_P1;HPM_P2
2022/08/04 00:02:51;;;;;;;0.10;0.10;;;25.00;66.20;;;;;;6316537;27;20155;-41
2022/08/04 00:06:02;;;;;;;0.10;0.10;;;24.80;66.10;;;;;;6315780;27;20095;-42
2022/08/04 00:09:11;;;;;;;0.20;0.20;;;24.80;66.10;;;;;;6309674;27;21066;-43
2022/08/04 00:12:15;;;;;;;0.10;0.10;;;24.90;66.20;;;;;;6312121;27;20158;-40
2022/08/04 00:15:17;;;;;;;0.25;0.20;;;24.60;66.10;;;;;;6329380;27;20039;-40
2022/08/04 00:18:22;;;;;;;0.10;0.10;;;24.60;66.10;;;;;;6306864;27;20050;-42
2022/08/04 00:21:25;;;;;;;0.10;0.10;;;24.80;66.30;;;;;;6305427;27;20053;-42
2022/08/04 00:24:29;;;;;;;0.28;0.20;;;24.60;66.20;;;;;;6305894;27;20039;-42
2022/08/04 00:27:32;;;;;;;0.10;0.10;;;24.70;66.30;;;;;;6304743;27;20038;-40
2022/08/04 00:30:40;;;;;;;0.25;0.17;;;24.70;66.30;;;;;;6321462;27;20088;-41
2022/08/04 00:33:44;;;;;;;0.13;0.13;;;24.70;66.30;;;;;;6324879;27;20039;-43
2022/08/04 00:36:46;;;;;;;0.13;0.10;;;24.70;66.30;;;;;;6311593;27;20031;-42
2022/08/04 00:39:50;;;;;;;0.10;0.10;;;24.70;66.30;;;;;;6326492;27;20200;-43
2022/08/04 00:43:05;;;;;;;0.10;0.10;;;24.70;66.30;;;;;;6330653;27;20117;-40
2022/08/04 00:46:31;;;;;;;0.57;0.20;;;24.80;66.50;;;;;;6303172;27;20377;-41
2022/08/04 00:49:53;;;;;;;0.10;0.10;;;24.70;66.30;;;;;;6313102;27;20450;-41
2022/08/04 00:53:06;;;;;;;1.13;0.20;;;24.80;66.40;;;;;;6312414;27;20118;-40
2022/08/04 00:56:27;;;;;;;0.10;0.10;;;24.80;66.40;;;;;;6300443;27;20946;-40
2022/08/04 00:59:44;;;;;;;0.20;0.20;;;24.80;66.40;;;;;;6320931;27;20773;-40
2022/08/04 01:03:06;;;;;;;0.10;0.10;;;24.70;66.30;;;;;;6317341;27;20081;-41
2022/08/04 01:06:17;;;;;;;0.15;0.10;;;24.70;66.40;;;;;;6312545;27;20379;-42
2022/08/04 01:09:30;;;;;;;0.15;0.13;;;24.70;66.30;;;;;;6295626;27;20349;-40
2022/08/04 01:12:50;;;;;;;0.20;0.13;;;24.90;66.50;;;;;;6311801;27;20435;-40
2022/08/04 01:15:59;;;;;;;0.10;0.10;;;24.70;66.30;;;;;;6310771;27;20270;-41
2022/08/04 01:19:16;;;;;;;0.20;0.20;;;24.80;66.30;;;;;;6282515;27;20343;-41
2022/08/04 01:22:46;;;;;;;0.17;0.17;;;24.80;66.30;;;;;;6298268;27;20909;-41
2022/08/04 01:26:12;;;;;;;0.10;0.10;;;24.80;66.30;;;;;;6313211;27;20043;-40
2022/08/04 01:29:45;;;;;;;0.10;0.10;;;24.80;66.30;;;;;;6285266;27;20042;-41
2022/08/04 01:32:54;;;;;;;0.03;0.03;;;24.80;66.20;;;;;;6292536;27;20208;-41
2022/08/04 01:35:59;;;;;;;0.10;0.10;;;24.90;66.30;;;;;;6297437;27;20278;-43
2022/08/04 01:39:39;;;;;;;0.10;0.05;;;24.80;66.20;;;;;;6312511;27;20059;-42
2022/08/04 01:42:25;;;;;;;0.20;0.10;;;24.80;66.20;;;;;;6298851;27;20872;-40
2022/08/04 01:45:36;;;;;;;0.22;0.20;;;24.90;66.20;;;;;;6294403;27;20047;-41
2022/08/04 01:48:39;;;;;;;0.10;0.10;;;24.70;66.10;;;;;;6313997;27;20192;-40
2022/08/04 01:51:45;;;;;;;0.10;0.10;;;24.90;66.20;;;;;;6313242;27;20301;-42
2022/08/04 01:54:48;;;;;;;0.10;0.10;;;24.90;66.20;;;;;;6314137;27;20790;-42
2022/08/04 01:57:52;;;;;;;0.30;0.10;;;24.90;66.10;;;;;;6311189;27;20303;-42
2022/08/04 02:01:01;;;;;;;0.20;0.10;;;24.80;66.10;;;;;;6311104;27;20162;-40
2022/08/04 02:04:02;;;;;;;0.43;0.13;;;24.90;66.10;;;;;;6295749;27;20047;-40
2022/08/04 02:07:36;;;;;;;0.07;0.00;;;24.80;66.10;;;;;;6314837;27;20127;-41
2022/08/04 02:10:56;;;;;;;0.10;0.10;;;24.80;66.10;;;;;;6297088;27;20331;-43
2022/08/04 02:14:01;;;;;;;0.10;0.10;;;24.80;66.10;;;;;;6311152;27;20134;-43
2022/08/04 02:17:10;;;;;;;0.20;0.20;;;24.80;66.10;;;;;;6313984;27;20042;-44
2022/08/04 02:20:18;;;;;;;0.10;0.10;;;24.90;66.10;;;;;;6307830;27;20078;-42
2022/08/04 02:23:29;;;;;;;0.10;0.10;;;24.90;66.10;;;;;;6293350;27;21786;-41
2022/08/04 02:26:33;;;;;;;0.10;0.10;;;24.80;66.10;;;;;;6316461;27;20796;-40
2022/08/04 02:29:42;;;;;;;0.10;0.10;;;24.70;66.00;;;;;;6317631;27;20573;-43
2022/08/04 02:32:51;;;;;;;0.10;0.10;;;24.90;66.10;;;;;;6308930;27;20047;-40
2022/08/04 02:35:59;;;;;;;0.10;0.10;;;24.80;66.00;;;;;;6309959;27;20425;-43
2022/08/04 02:39:05;;;;;;;0.10;0.10;;;24.80;66.00;;;;;;6293713;27;22105;-43
2022/08/04 02:42:09;;;;;;;0.00;0.00;;;24.70;66.00;;;;;;6291058;27;20317;-41
2022/08/04 02:45:11;;;;;;;0.17;0.10;;;24.70;66.00;;;;;;6315705;27;20069;-40
2022/08/04 02:48:15;;;;;;;0.03;0.00;;;24.70;66.00;;;;;;6313322;27;20158;-40
2022/08/04 02:51:35;;;;;;;0.15;0.15;;;24.80;66.00;;;;;;6318652;27;20210;-42
2022/08/04 02:54:39;;;;;;;0.10;0.10;;;24.70;66.00;;;;;;6293919;27;20081;-41
2022/08/04 02:57:44;;;;;;;0.10;0.10;;;24.80;66.00;;;;;;6314928;27;22224;-40
2022/08/04 03:00:47;;;;;;;0.10;0.10;;;24.80;65.90;;;;;;6312973;27;20085;-40
2022/08/04 03:04:01;;;;;;;0.10;0.10;;;24.80;65.90;;;;;;6311802;27;20371;-40
2022/08/04 03:07:26;;;;;;;0.13;0.03;;;24.90;66.00;;;;;;6314746;27;20342;-41
2022/08/04 03:10:57;;;;;;;0.20;0.17;;;24.70;65.80;;;;;;6314917;27;20043;-41
2022/08/04 03:14:29;;;;;;;0.03;0.00;;;24.70;65.80;;;;;;6317054;27;20355;-42
2022/08/04 03:17:55;;;;;;;0.25;0.20;;;24.80;65.90;;;;;;6312078;27;20169;-40
2022/08/04 03:21:22;;;;;;;0.30;0.10;;;24.70;65.80;;;;;;6312450;27;20876;-40
2022/08/04 03:24:55;;;;;;;0.20;0.10;;;24.70;65.70;;;;;;6312562;27;20081;-40
2022/08/04 03:28:21;;;;;;;0.17;0.10;;;24.80;65.70;;;;;;6314468;27;20047;-40
2022/08/04 03:31:44;;;;;;;0.20;0.20;;;24.70;65.60;;;;;;6324523;27;20039;-41
2022/08/04 03:35:02;;;;;;;0.20;0.20;;;24.80;65.60;;;;;;6313422;27;20398;-40
2022/08/04 03:38:23;;;;;;;0.10;0.10;;;24.70;65.40;;;;;;6293389;27;20077;-39
2022/08/04 03:41:39;;;;;;;0.22;0.20;;;24.70;65.40;;;;;;6289140;27;20046;-41
2022/08/04 03:45:35;;;;;;;0.30;0.20;;;24.90;65.40;;;;;;6297149;27;20046;-40
2022/08/04 03:49:01;;;;;;;0.10;0.10;;;24.80;65.30;;;;;;6319007;27;20513;-44
2022/08/04 03:55:45;;;;;;;0.35;0.35;;;24.80;65.10;;;;;;6315603;27;20046;-42
2022/08/04 03:59:08;;;;;;;0.30;0.20;;;24.70;64.90;;;;;;6322433;27;20035;-43
2022/08/04 04:02:38;;;;;;;0.30;0.20;;;24.80;64.90;;;;;;6314137;27;20589;-40
2022/08/04 04:06:03;;;;;;;0.20;0.20;;;24.70;64.80;;;;;;6300636;27;20128;-43
2022/08/04 04:09:26;;;;;;;0.20;0.20;;;24.80;64.70;;;;;;6315705;27;20046;-41
2022/08/04 04:13:09;;;;;;;0.30;0.30;;;24.70;64.50;;;;;;6299528;27;20500;-41
2022/08/04 04:16:31;;;;;;;0.28;0.20;;;24.70;64.40;;;;;;6311918;27;20042;-42
2022/08/04 04:19:49;;;;;;;0.25;0.20;;;24.70;64.30;;;;;;6311686;27;20053;-44
2022/08/04 04:23:05;;;;;;;0.38;0.30;;;24.90;64.30;;;;;;6310942;27;20366;-43
2022/08/04 04:26:39;;;;;;;0.20;0.20;;;24.70;64.10;;;;;;6308498;27;20754;-43
2022/08/04 04:30:00;;;;;;;1.02;0.22;;;24.70;64.00;;;;;;6311415;27;20114;-46
2022/08/04 04:33:18;;;;;;;0.35;0.30;;;24.70;64.00;;;;;;6310507;27;20070;-44
2022/08/04 04:36:29;;;;;;;0.30;0.30;;;24.60;63.80;;;;;;6310163;27;20327;-43
2022/08/04 04:39:40;;;;;;;0.20;0.20;;;24.90;63.90;;;;;;6311074;27;20189;-40
2022/08/04 04:42:54;;;;;;;0.40;0.30;;;24.70;63.70;;;;;;6319293;27;20376;-41
2022/08/04 04:46:05;;;;;;;0.35;0.35;;;24.90;63.70;;;;;;6318617;27;20446;-42
2022/08/04 04:49:24;;;;;;;0.32;0.30;;;24.70;63.50;;;;;;6310388;27;20509;-41
2022/08/04 04:52:33;;;;;;;0.38;0.32;;;24.70;63.40;;;;;;6290460;27;20051;-41
2022/08/04 04:55:42;;;;;;;0.45;0.30;;;24.80;63.40;;;;;;6305555;27;20791;-41
2022/08/04 04:58:51;;;;;;;0.30;0.30;;;24.70;63.30;;;;;;6292522;27;20042;-43
2022/08/04 05:02:17;;;;;;;0.45;0.30;;;24.70;63.20;;;;;;6317379;27;20458;-42
2022/08/04 05:05:32;;;;;;;0.30;0.20;;;24.70;63.20;;;;;;6302062;27;20205;-45
2022/08/04 05:08:56;;;;;;;0.30;0.30;;;24.60;63.00;;;;;;6325700;27;20107;-42
2022/08/04 05:12:09;;;;;;;;;;;24.50;62.90;;;;;;6325701;27;20161;-43
2022/08/04 05:15:36;;;;;;;0.40;0.30;;;24.60;63.00;;;;;;6309150;27;19934;-41
2022/08/04 05:18:41;;;;;;;0.40;0.30;;;24.60;62.90;;;;;;6305885;27;20043;-46
2022/08/04 05:21:48;;;;;;;0.60;0.43;;;24.60;62.90;;;;;;6316946;27;20070;-41
2022/08/04 05:25:00;;;;;;;0.30;0.30;;;24.70;62.90;;;;;;6291221;27;20589;-42
2022/08/04 05:28:05;;;;;;;0.90;0.38;;;24.70;62.90;;;;;;6312385;27;20115;-44
2022/08/04 05:31:12;;;;;;;0.57;0.40;;;24.70;62.80;;;;;;6303841;27;20074;-41
2022/08/04 05:34:21;;;;;;;0.40;0.40;;;24.70;62.80;;;;;;6309624;27;20047;-45
2022/08/04 05:37:26;;;;;;;0.50;0.40;;;24.60;62.70;;;;;;6320756;27;20043;-42
2022/08/04 05:40:32;;;;;;;0.47;0.40;;;24.60;62.60;;;;;;6321310;27;20037;-42
2022/08/04 05:43:35;;;;;;;0.50;0.40;;;24.80;62.70;;;;;;6318121;27;20063;-43
2022/08/04 05:46:37;;;;;;;0.43;0.30;;;24.70;62.70;;;;;;6307941;27;20038;-42
2022/08/04 05:49:40;;;;;;;0.43;0.30;;;24.70;62.60;;;;;;6302764;27;20315;-42
2022/08/04 05:52:46;;;;;;;0.70;0.40;;;24.70;62.50;;;;;;6304263;27;20380;-44
2022/08/04 05:55:48;;;;;;;0.52;0.40;;;24.70;62.50;;;;;;6297492;27;20035;-43
2022/08/04 05:59:03;;;;;;;0.80;0.50;;;24.70;62.50;;;;;;6319788;27;20047;-44
2022/08/04 06:02:07;;;;;;;0.60;0.40;;;24.70;62.50;;;;;;6296969;27;20055;-43
2022/08/04 06:05:13;;;;;;;0.95;0.43;;;24.60;62.40;;;;;;6302264;27;20509;-43
2022/08/04 06:08:15;;;;;;;0.47;0.40;;;24.60;62.40;;;;;;6304085;27;20113;-42
2022/08/04 06:11:19;;;;;;;0.75;0.50;;;24.70;62.40;;;;;;6313063;27;20047;-41
2022/08/04 06:14:23;;;;;;;0.57;0.30;;;24.70;62.40;;;;;;6291835;27;20110;-42
2022/08/04 06:17:30;;;;;;;0.50;0.40;;;24.70;62.40;;;;;;6300784;27;20153;-43
2022/08/04 06:20:53;;;;;;;0.90;0.60;;;24.70;62.30;;;;;;6297407;27;21022;-43
2022/08/04 06:24:00;;;;;;;0.47;0.40;;;24.60;62.30;;;;;;6317793;27;20919;-43
2022/08/04 06:27:07;;;;;;;0.57;0.32;;;24.60;62.20;;;;;;6311761;27;20055;-44
2022/08/04 06:30:13;;;;;;;0.50;0.50;;;24.70;62.20;;;;;;6306524;27;20051;-43
2022/08/04 06:33:23;;;;;;;0.60;0.40;;;24.80;62.30;;;;;;6288994;27;20039;-43
2022/08/04 06:36:25;;;;;;;0.57;0.47;;;24.70;62.10;;;;;;6281106;27;20046;-42
2022/08/04 06:39:29;;;;;;;0.77;0.50;;;24.80;62.20;;;;;;6294131;27;20047;-41
2022/08/04 06:42:36;;;;;;;0.70;0.50;;;24.80;62.10;;;;;;6291779;27;20055;-44
2022/08/04 06:45:40;;;;;;;0.43;0.32;;;24.70;62.10;;;;;;6283198;27;20050;-43
2022/08/04 06:48:42;;;;;;;1.13;0.68;;;24.80;62.70;;;;;;6288937;27;20043;-41
2022/08/04 06:51:46;;;;;;;1.75;0.52;;;24.80;62.10;;;;;;6243090;27;20937;-43
2022/08/04 06:54:52;;;;;;;0.73;0.40;;;24.90;62.10;;;;;;6250758;27;20042;-44
2022/08/04 06:57:55;;;;;;;1.58;0.50;;;24.80;62.00;;;;;;6247629;27;20291;-43
2022/08/04 07:01:05;;;;;;;1.60;0.60;;;24.90;62.00;;;;;;6238404;27;20046;-43
2022/08/04 07:04:06;;;;;;;3.20;0.77;;;24.90;62.10;;;;;;6239974;27;20055;-42
2022/08/04 07:07:09;;;;;;;13.20;2.15;;;24.90;62.10;;;;;;6235365;27;20073;-42
2022/08/04 07:10:11;;;;;;;2.38;0.60;;;24.90;62.00;;;;;;6259025;27;20043;-41
2022/08/04 07:13:22;;;;;;;4.93;1.23;;;24.70;61.90;;;;;;6245345;27;21171;-42
2022/08/04 07:16:24;;;;;;;1.73;0.55;;;24.90;62.00;;;;;;6253274;27;20054;-42
2022/08/04 07:19:32;;;;;;;1.33;0.73;;;24.90;61.90;;;;;;6260375;27;22039;-42
2022/08/04 07:22:35;;;;;;;3.13;0.85;;;25.00;61.90;;;;;;6233228;27;20173;-43
2022/08/04 07:25:37;;;;;;;3.40;1.05;;;25.00;61.70;;;;;;6259390;27;20174;-41
2022/08/04 07:28:59;;;;;;;4.30;0.90;;;25.00;61.70;;;;;;6253132;27;23222;-46
2022/08/04 07:32:03;;;;;;;1.77;0.80;;;25.00;61.70;;;;;;6260839;27;20051;-41
2022/08/04 07:35:06;;;;;;;3.65;0.98;;;25.10;61.90;;;;;;6236201;27;20034;-38
2022/08/04 07:38:10;;;;;;;2.45;0.82;;;25.10;61.90;;;;;;6268723;27;20039;-39
2022/08/04 07:41:18;;;;;;;1.35;0.75;;;25.10;61.70;;;;;;6247483;27;20097;-41
2022/08/04 07:44:39;;;;;;;1.05;0.60;;;25.20;61.70;;;;;;6219860;27;20047;-39
2022/08/04 07:47:42;;;;;;;1.50;0.65;;;25.20;61.70;;;;;;6215924;27;20249;-41
2022/08/04 07:51:05;;;;;;;1.48;0.70;;;25.20;61.60;;;;;;6208746;27;20070;-42
2022/08/04 07:54:09;;;;;;;1.02;0.40;;;25.30;61.60;;;;;;6241949;27;20123;-42
2022/08/04 07:57:11;;;;;;;1.23;0.50;;;25.20;61.40;;;;;;6231221;27;20165;-42
2022/08/04 08:00:33;;;;;;;1.65;0.50;;;25.20;61.30;;;;;;6209882;27;20077;-44
2022/08/04 08:03:36;;;;;;;1.08;0.60;;;25.20;61.20;;;;;;6241425;27;20167;-39
2022/08/04 08:06:39;;;;;;;1.35;0.68;;;25.20;61.10;;;;;;6243520;27;20119;-40
2022/08/04 08:09:44;;;;;;;1.55;0.63;;;25.20;61.00;;;;;;6246392;27;20158;-43
2022/08/04 08:12:47;;;;;;;1.67;0.50;;;25.30;61.00;;;;;;6238088;27;20043;-41
2022/08/04 08:15:53;;;;;;;1.23;0.60;;;25.30;60.80;;;;;;6243113;27;20042;-40
2022/08/04 08:18:55;;;;;;;0.75;0.57;;;25.30;60.60;;;;;;6265470;27;20070;-41
2022/08/04 08:21:57;;;;;;;1.02;0.40;;;25.30;60.40;;;;;;6250118;27;20051;-39
2022/08/04 08:25:01;;;;;;;1.20;0.40;;;25.30;60.20;;;;;;6259612;27;20037;-41
2022/08/04 08:28:05;;;;;;;0.82;0.50;;;25.30;60.20;;;;;;6245553;27;21606;-40
2022/08/04 08:31:07;;;;;;;1.48;0.60;;;25.40;60.00;;;;;;6240889;27;20047;-39
2022/08/04 08:34:10;;;;;;;0.60;0.40;;;25.30;59.90;;;;;;6243152;27;21242;-41
2022/08/04 08:37:17;;;;;;;0.50;0.40;;;25.40;59.80;;;;;;6242366;27;20040;-44
2022/08/04 08:40:29;;;;;;;0.90;0.25;;;25.40;59.60;;;;;;6249266;27;20181;-39
2022/08/04 08:44:01;;;;;;;0.68;0.40;;;25.50;59.50;;;;;;6243770;27;21320;-40
2022/08/04 08:47:22;;;;;;;0.60;0.40;;;25.40;59.30;;;;;;6245315;27;20047;-39
2022/08/04 08:50:49;;;;;;;0.65;0.40;;;25.50;59.10;;;;;;6260123;27;20042;-38
2022/08/04 08:54:07;;;;;;;0.52;0.32;;;25.40;58.80;;;;;;6201844;27;25095;-42
2022/08/04 08:57:26;;;;;;;1.70;0.30;;;25.40;58.60;;;;;;6252281;27;20047;-39
2022/08/04 09:00:45;;;;;;;2.58;0.40;;;25.40;58.40;;;;;;6253474;27;20043;-41
2022/08/04 09:04:07;;;;;;;0.40;0.30;;;25.40;58.30;;;;;;6210284;27;20067;-40
2022/08/04 09:07:27;;;;;;;2.83;0.65;;;25.40;58.10;;;;;;6222154;27;21347;-42
2022/08/04 09:10:38;;;;;;;2.40;0.70;;;25.40;58.10;;;;;;6238552;27;22665;-41
2022/08/04 09:13:44;;;;;;;4.00;0.63;;;25.50;58.10;;;;;;6237420;27;20088;-44
2022/08/04 09:16:53;;;;;;;0.47;0.30;;;25.40;57.90;;;;;;6241222;27;20162;-42
2022/08/04 09:20:01;;;;;;;2.08;0.43;;;25.30;57.50;;;;;;6236700;27;22172;-40
2022/08/04 09:23:15;;;;;;;1.10;0.40;;;25.40;57.40;;;;;;6228922;27;20082;-41
2022/08/04 09:26:24;;;;;;;0.38;0.20;;;25.40;57.00;;;;;;6243976;27;20173;-41
2022/08/04 09:29:35;;;;;;;1.02;0.30;;;25.50;56.80;;;;;;6242203;27;20054;-42
2022/08/04 09:32:46;;;;;;;1.17;0.30;;;25.60;56.60;;;;;;6223393;27;20115;-40
2022/08/04 09:35:56;;;;;;;0.70;0.30;;;25.60;56.30;;;;;;6210774;27;20042;-42
2022/08/04 09:39:08;;;;;;;0.40;0.20;;;25.60;56.10;;;;;;6247965;27;20038;-43
2022/08/04 09:42:19;;;;;;;0.52;0.30;;;25.60;55.80;;;;;;6244338;27;20058;-41
2022/08/04 09:45:32;;;;;;;1.52;0.30;;;25.60;55.60;;;;;;6244834;27;21975;-40
2022/08/04 09:48:54;;;;;;;0.73;0.40;;;25.60;55.40;;;;;;6236466;27;21306;-40
2022/08/04 09:52:06;;;;;;;0.30;0.20;;;25.50;55.10;;;;;;6234476;27;20796;-40
2022/08/04 09:55:18;;;;;;;0.47;0.30;;;25.60;55.10;;;;;;6225850;27;20284;-38
2022/08/04 09:58:30;;;;;;;0.20;0.20;;;25.70;55.00;;;;;;6247859;27;20128;-40
2022/08/04 10:01:34;;;;;;;0.40;0.25;;;25.50;54.70;;;;;;6223075;27;20126;-41
2022/08/04 10:04:39;;;;;;;0.52;0.20;;;25.60;54.70;;;;;;6207119;27;20255;-39
2022/08/04 10:07:56;;;;;;;0.40;0.30;;;25.60;54.50;;;;;;6189684;27;20057;-40
2022/08/04 10:11:32;;;;;;;1.70;0.30;;;25.60;54.30;;;;;;6224219;27;20075;-41
2022/08/04 10:14:45;;;;;;;0.80;0.30;;;25.50;54.20;;;;;;6195196;27;20248;-41
2022/08/04 10:18:10;;;;;;;1.20;0.30;;;25.60;54.30;;;;;;6215197;27;21949;-39
2022/08/04 10:21:22;;;;;;;0.63;0.30;;;25.60;54.10;;;;;;6219692;27;20046;-42
2022/08/04 10:24:38;;;;;;;0.40;0.17;;;25.60;53.90;;;;;;6235364;27;20615;-40
2022/08/04 10:27:45;;;;;;;0.50;0.38;;;25.70;54.40;;;;;;6244790;27;20529;-42
2022/08/04 10:30:50;;;;;;;1.10;0.30;;;25.60;53.60;;;;;;6249161;27;20088;-41
2022/08/04 10:33:59;;;;;;;0.57;0.30;;;25.80;53.60;;;;;;6245466;27;20934;-43
2022/08/04 10:37:16;;;;;;;0.30;0.20;;;25.70;53.30;;;;;;6218948;27;20118;-39
2022/08/04 10:43:47;;;;;;;0.30;0.20;;;25.60;53.00;;;;;;6259583;27;20777;-43
2022/08/04 10:46:53;;;;;;;0.35;0.30;;;25.70;52.90;;;;;;6255129;27;20047;-44
2022/08/04 10:49:59;;;;;;;0.32;0.10;;;25.70;52.90;;;;;;6250471;27;20247;-40
2022/08/04 10:53:08;;;;;;;0.30;0.20;;;25.70;52.80;;;;;;6262637;27;22649;-41
2022/08/04 10:56:21;;;;;;;0.20;0.20;;;25.70;52.70;;;;;;6252425;27;20053;-43
2022/08/04 10:59:28;;;;;;;0.47;0.20;;;25.60;52.70;;;;;;6275760;27;20051;-42
2022/08/04 11:02:39;;;;;;;0.38;0.20;;;25.60;52.70;;;;;;6282554;27;20050;-41
2022/08/04 11:05:45;;;;;;;0.30;0.10;;;25.60;52.70;;;;;;6274674;27;20051;-40
2022/08/04 11:08:53;;;;;;;0.70;0.20;;;25.50;52.60;;;;;;6270192;27;20291;-41
2022/08/04 11:12:02;;;;;;;0.38;0.20;;;26.40;53.20;;;;;;6274437;27;20043;-43
2022/08/04 11:15:08;;;;;;;0.45;0.28;;;25.60;52.70;;;;;;6256117;27;20045;-41
2022/08/04 11:18:14;;;;;;;1.13;0.17;;;25.50;52.60;;;;;;6284224;27;20043;-40
2022/08/04 11:21:20;;;;;;;0.40;0.20;;;25.50;52.70;;;;;;6288885;27;20821;-41
2022/08/04 11:24:33;;;;;;;0.50;0.20;;;25.50;52.60;;;;;;6246050;27;20045;-43
2022/08/04 11:27:46;;;;;;;1.27;0.30;;;25.50;52.60;;;;;;6283440;27;20042;-42
2022/08/04 11:30:54;;;;;;;0.30;0.17;;;25.60;52.70;;;;;;6252418;27;20111;-42
2022/08/04 11:34:00;;;;;;;0.63;0.25;;;25.50;52.50;;;;;;6260209;27;21219;-38
2022/08/04 11:37:08;;;;;;;2.03;0.38;;;25.50;52.60;;;;;;6255578;27;20215;-38
2022/08/04 11:40:24;;;;;;;0.80;0.40;;;25.50;52.60;;;;;;6235116;27;21805;-38
2022/08/04 11:43:35;;;;;;;0.30;0.20;;;25.50;52.50;;;;;;6233706;27;20964;-38
2022/08/04 11:47:02;;;;;;;1.30;0.40;;;25.50;52.60;;;;;;6246036;27;24336;-37
2022/08/04 11:50:10;;;;;;;0.38;0.20;;;25.50;52.60;;;;;;6251811;27;24149;-41
2022/08/04 11:53:18;;;;;;;0.52;0.30;;;25.60;52.70;;;;;;6274721;27;20082;-38
2022/08/04 11:56:20;;;;;;;0.22;0.20;;;25.50;52.60;;;;;;6245950;27;20123;-40
2022/08/04 11:59:40;;;;;;;0.40;0.20;;;25.50;52.60;;;;;;6232223;27;20067;-40
2022/08/04 12:02:59;;;;;;;0.32;0.20;;;25.50;52.70;;;;;;6218812;27;20047;-39
2022/08/04 12:06:11;;;;;;;0.32;0.20;;;25.50;52.70;;;;;;6224052;27;32478;-40
2022/08/04 12:09:21;;;;;;;0.32;0.30;;;25.50;52.80;;;;;;6231724;27;20043;-41
2022/08/04 12:12:29;;;;;;;0.20;0.20;;;25.50;52.90;;;;;;6233822;27;20050;-38
2022/08/04 12:15:37;;;;;;;0.10;0.10;;;25.60;53.10;;;;;;6236566;27;20031;-39
2022/08/04 12:18:44;;;;;;;1.45;0.20;;;25.50;53.00;;;;;;6245384;27;20074;-38
2022/08/04 12:21:52;;;;;;;0.25;0.20;;;25.50;53.10;;;;;;6230603;27;20035;-38
2022/08/04 12:25:02;;;;;;;2.38;0.52;;;25.60;53.30;;;;;;6225466;27;21131;-37
2022/08/04 12:28:15;;;;;;;0.57;0.35;;;25.60;53.40;;;;;;6219114;27;20047;-38
2022/08/04 12:31:20;;;;;;;0.52;0.25;;;25.60;53.50;;;;;;6232949;27;20193;-38
2022/08/04 12:34:34;;;;;;;0.40;0.20;;;25.60;53.70;;;;;;6213861;27;20063;-39
2022/08/04 12:37:47;;;;;;;0.25;0.20;;;25.50;53.60;;;;;;6250702;27;20047;-39
2022/08/04 12:40:50;;;;;;;0.28;0.20;;;25.50;53.80;;;;;;6252639;27;20160;-39
2022/08/04 12:43:54;;;;;;;0.30;0.20;;;25.60;53.90;;;;;;6238330;27;22788;-41
2022/08/04 12:46:58;;;;;;;0.30;0.20;;;25.50;53.90;;;;;;6239098;27;20062;-41
2022/08/04 12:50:21;;;;;;;0.55;0.30;;;25.50;54.00;;;;;;6227081;27;21036;-41
2022/08/04 12:53:30;;;;;;;0.38;0.20;;;25.40;53.90;;;;;;6223912;27;21469;-39
2022/08/04 12:56:35;;;;;;;0.45;0.28;;;25.50;54.00;;;;;;6184126;27;20047;-40
2022/08/04 12:59:39;;;;;;;0.20;0.20;;;25.50;54.20;;;;;;6242124;27;20047;-41
2022/08/04 13:02:45;;;;;;;0.30;0.25;;;25.40;54.00;;;;;;6228203;27;20042;-40
2022/08/04 13:05:52;;;;;;;0.15;0.15;;;25.50;54.10;;;;;;6202605;27;20039;-40
2022/08/04 13:08:54;;;;;;;0.45;0.20;;;25.50;54.00;;;;;;6222068;27;20593;-40
2022/08/04 13:12:01;;;;;;;0.40;0.25;;;25.50;54.10;;;;;;6207725;27;20043;-42
2022/08/04 13:15:14;;;;;;;0.60;0.35;;;25.40;53.90;;;;;;6210137;27;20130;-41
2022/08/04 13:18:21;;;;;;;0.20;0.20;;;25.50;53.90;;;;;;6243263;27;20169;-42
2022/08/04 13:21:31;;;;;;;0.80;0.30;;;25.40;53.80;;;;;;6246013;27;20134;-44
2022/08/04 13:24:54;;;;;;;0.35;0.30;;;25.50;53.80;;;;;;6205723;27;20043;-43
2022/08/04 13:28:20;;;;;;;0.10;0.10;;;25.50;53.70;;;;;;6233226;27;21849;-41
2022/08/04 13:31:27;;;;;;;0.20;0.20;;;25.20;54.00;;;;;;6235476;27;20124;-44
2022/08/04 13:34:40;;;;;;;0.43;0.30;;;;;;;;;;6238378;27;27240;-43
2022/08/04 13:37:42;;;;;;;0.35;0.20;;;;;;;;;;6238501;27;20050;-42
2022/08/04 13:40:45;;;;;;;0.73;0.47;;;25.80;52.20;;;;;;6257650;27;20038;-41
2022/08/04 13:43:51;;;;;;;0.98;0.30;;;25.70;53.20;;;;;;6238809;27;20078;-39
2022/08/04 13:47:21;;;;;;;1.33;0.20;;;25.60;53.10;;;;;;6232575;27;20052;-40
2022/08/04 13:50:26;;;;;;;0.55;0.30;;;25.50;53.00;;;;;;6240851;27;22736;-41
2022/08/04 13:53:27;;;;;;;0.75;0.30;;;25.60;53.00;;;;;;6252163;27;20177;-44
2022/08/04 13:56:37;;;;;;;0.55;0.30;;;25.60;53.00;;;;;;6217076;27;24150;-41
2022/08/04 13:59:42;;;;;;;0.52;0.17;;;25.60;52.80;;;;;;6213760;27;20045;-41
2022/08/04 14:02:48;;;;;;;0.40;0.20;;;25.80;52.90;;;;;;6241229;27;20326;-39
2022/08/04 14:06:09;;;;;;;0.70;0.30;;;25.70;52.80;;;;;;6211691;27;20047;-40
2022/08/04 14:09:14;;;;;;;0.75;0.50;;;25.70;52.80;;;;;;6219642;27;20158;-40
2022/08/04 14:12:16;;;;;;;0.75;0.38;;;25.70;53.00;;;;;;6195508;27;20043;-39
2022/08/04 14:15:39;;;;;;;0.80;0.43;;;25.70;52.80;;;;;;6211645;27;20074;-39
2022/08/04 14:19:02;;;;;;;0.30;0.30;;;25.70;52.70;;;;;;6210661;27;20043;-41
2022/08/04 14:22:03;;;;;;;0.68;0.50;;;25.70;52.60;;;;;;6231427;27;20035;-39
2022/08/04 14:25:10;;;;;;;0.47;0.30;;;25.80;52.70;;;;;;6231757;27;20046;-42
2022/08/04 14:28:26;;;;;;;2.58;0.43;;;25.70;52.50;;;;;;6204083;27;20419;-41
2022/08/04 14:31:48;;;;;;;0.55;0.30;;;25.80;52.50;;;;;;6175863;27;20067;-39
2022/08/04 14:35:10;;;;;;;1.00;0.35;;;25.80;52.50;;;;;;6213116;27;22140;-39
2022/08/04 14:38:11;;;;;;;4.03;0.40;;;25.80;52.30;;;;;;6215592;27;20174;-40
2022/08/04 14:41:14;;;;;;;0.43;0.30;;;25.70;52.10;;;;;;6238019;27;20176;-38
2022/08/04 14:44:17;;;;;;;0.93;0.47;;;25.80;52.10;;;;;;6219969;27;20049;-41
2022/08/04 14:47:18;;;;;;;1.50;0.32;;;25.80;52.00;;;;;;6216503;27;20138;-40
2022/08/04 14:50:33;;;;;;;2.15;0.40;;;25.90;52.00;;;;;;6245738;27;20037;-43
2022/08/04 14:53:36;;;;;;;2.10;0.43;;;25.90;51.70;;;;;;6244223;27;21797;-42
2022/08/04 14:56:39;;;;;;;0.70;0.30;;;25.90;51.60;;;;;;6244489;27;20241;-42
2022/08/04 14:59:49;;;;;;;0.93;0.43;;;25.90;51.50;;;;;;6218204;27;20045;-43
2022/08/04 15:03:07;;;;;;;0.88;0.40;;;26.00;51.10;;;;;;6213396;27;20733;-45
2022/08/04 15:06:09;;;;;;;0.57;0.30;;;26.00;51.40;;;;;;6199954;27;20263;-39
2022/08/04 15:09:22;;;;;;;0.68;0.30;;;26.00;51.30;;;;;;6231089;27;20332;-40
2022/08/04 15:12:23;;;;;;;0.65;0.38;;;25.90;51.20;;;;;;6221040;27;25672;-42
2022/08/04 15:15:26;;;;;;;0.82;0.40;;;26.00;51.20;;;;;;6228499;27;26539;-43
2022/08/04 15:18:39;;;;;;;0.93;0.45;;;25.90;51.10;;;;;;6235734;27;20845;-39
2022/08/04 15:21:42;;;;;;;0.88;0.52;;;26.00;51.80;;;;;;6207274;27;21932;-40
2022/08/04 15:24:44;;;;;;;0.30;0.25;;;25.90;51.00;;;;;;6214922;27;20196;-42
2022/08/04 15:27:54;;;;;;;0.60;0.30;;;25.90;50.90;;;;;;6230736;27;24857;-38
2022/08/04 15:30:55;;;;;;;0.43;0.30;;;25.90;50.90;;;;;;6237473;27;20039;-44
2022/08/04 15:33:57;;;;;;;0.40;0.30;;;25.80;50.70;;;;;;6240035;27;20496;-43
2022/08/04 15:37:05;;;;;;;1.25;0.60;;;25.90;50.70;;;;;;6211049;27;20270;-42
2022/08/04 15:40:11;;;;;;;2.00;0.38;;;25.90;50.60;;;;;;6231967;27;20070;-42
2022/08/04 15:43:29;;;;;;;2.03;0.40;;;25.90;50.70;;;;;;6231579;27;20092;-42
2022/08/04 15:47:09;;;;;;;0.60;0.40;;;26.00;50.50;;;;;;6249240;27;20177;-41
2022/08/04 15:50:12;;;;;;;4.78;0.47;;;26.50;50.80;;;;;;6242374;27;20337;-42
2022/08/04 15:53:14;;;;;;;0.30;0.20;;;25.90;50.30;;;;;;6252450;27;20223;-42
2022/08/04 15:56:43;;;;;;;0.20;0.20;;;25.90;50.20;;;;;;6254600;27;20443;-42
2022/08/04 15:59:59;;;;;;;0.20;0.20;;;25.90;50.80;;;;;;6232720;27;20374;-42
2022/08/04 16:03:00;;;;;;;0.30;0.13;;;26.00;50.10;;;;;;6259585;27;20556;-41
2022/08/04 16:06:36;;;;;;;0.45;0.30;;;25.90;50.00;;;;;;6260411;27;20187;-42
2022/08/04 16:09:38;;;;;;;0.68;0.40;;;25.90;49.70;;;;;;6242675;27;20374;-43
2022/08/04 16:12:53;;;;;;;0.30;0.30;;;25.90;49.70;;;;;;6271866;27;20991;-42
2022/08/04 16:15:57;;;;;;;0.40;0.28;;;25.90;49.50;;;;;;6261532;27;20095;-43
2022/08/04 16:19:06;;;;;;;0.28;0.20;;;25.90;49.30;;;;;;6284395;27;20452;-43
2022/08/04 16:22:12;;;;;;;0.30;0.20;;;25.90;49.30;;;;;;6257726;27;20161;-42
2022/08/04 16:25:14;;;;;;;0.30;0.20;;;25.90;49.10;;;;;;6280528;27;20053;-43
2022/08/04 16:28:41;;;;;;;0.22;0.20;;;25.90;49.10;;;;;;6301059;27;20043;-44
2022/08/04 16:32:06;;;;;;;0.20;0.20;;;25.90;48.90;;;;;;6270798;27;20181;-42
2022/08/04 16:35:25;;;;;;;0.20;0.20;;;25.90;48.90;;;;;;6292351;27;20117;-42
2022/08/04 16:38:27;;;;;;;0.40;0.20;;;25.90;48.80;;;;;;6263610;27;20042;-43
2022/08/04 16:41:39;;;;;;;0.22;0.10;;;25.80;48.80;;;;;;6261733;27;20042;-43
2022/08/04 16:44:40;;;;;;;0.30;0.10;;;25.90;48.70;;;;;;6289695;27;20314;-42